(°C)
23°
22°
22°
21°
20°
20°
19°
(°C)
22°
22°
22°
21°
20°
20°
19°
ONO
O
OSO
OSO
OSO
OSO
ONO
(km/h)
5-9
4-7
4-8
3-5
4-8
3-5
2-9
(mm)
0
0
0
0
0
0
0
(%)
49
40
24
30
25
16
16

Sonnenhöhe

/ 19.5°
sun-icon
UV 6
05:20
20:38
Abnehmender Mond (253°)
01:41
10:25

METAR für Klagenfurt (LOWK)

Zeit Bedingungen Temperatur/
Taupunkt
Wind Sichtweite Wetter Wolken Druck Änderung Roh
VFR 22°C / 17°C 100º variable 060º to 140º 3kt >10km - Few Clouds 7000ft
Scattered Clouds 9000ft
1016 No Significant change LOWK 211620Z 10003KT 060V140 9999 FEW070 SCT090 22/17 Q1016 NOSIG
VFR 23°C / 16°C 60º 5kt >10km - Few Clouds 6000ft
Broken Clouds 10000ft
1017 No Significant change LOWK 211550Z 06005KT 9999 FEW060 BKN100 23/16 Q1017 NOSIG
VFR 23°C / 16°C variable 2kt >10km - Few Clouds 6000ft
Few Clouds 6000ft
Broken Clouds 10000ft
1017 No Significant change LOWK 211520Z VRB02KT 9999 FEW060 FEW060TCU BKN100 23/16 Q1017 NOSIG
VFR 22°C / 17°C 170º variable 130º to 210º 4kt >10km - Few Clouds 5000ft
Few Clouds 6000ft
Broken Clouds 9000ft
1017 No Significant change LOWK 211450Z 17004KT 130V210 9999 FEW050 FEW060CB BKN090 22/17 Q1017 NOSIG
VFR 22°C / 17°C variable 3kt >10km - Scattered Clouds 5000ft
Few Clouds 5000ft
Broken Clouds 9000ft
1018 No Significant change LOWK 211420Z VRB03KT 9999 SCT050 FEW050CB BKN090 22/17 Q1018 RETSRA NOSIG
VFR 21°C / 15°C 300º variable 260º to 330º 19kt Gust 32kt >10km Thunderstorm Rain 3.00mm precipitation Vertical Visibility of 0ft.
Scattered Clouds 6000ft
Broken Clouds 7500ft
1018 Becoming: NSW LOWK 211350Z 30019G32KT 260V330 9999 4000W TSRA FEW050CB SCT060 BKN075 21/15 Q1018 BECMG NSW
VFR 27°C / 11°C 40º variable 010º to 070º 8kt >10km - Scattered Clouds 6500ft
Few Clouds 6500ft
1017 Temporary: Showers Rain . LOWK 211320Z 04008KT 010V070 9999 SCT065 FEW065TCU 27/11 Q1017 TEMPO SHRA
VFR 27°C / 13°C 360º variable 320º to 040º 4kt >10km - Few Clouds 6500ft
Few Clouds 6500ft
1017 No Significant change LOWK 211250Z 36004KT 320V040 9999 FEW065 FEW065TCU 27/13 Q1017 NOSIG
VFR 27°C / 13°C 70º variable 360º to 120º 5kt >10km - Few Clouds 6500ft 1018 No Significant change LOWK 211220Z 07005KT 360V120 9999 FEW065 27/13 Q1018 NOSIG
VFR 27°C / 13°C 30º variable 330º to 090º 6kt >10km - Few Clouds 6000ft 1018 No Significant change LOWK 211150Z 03006KT 330V090 9999 FEW060 27/13 Q1018 NOSIG
VFR 27°C / 14°C variable 3kt >10km - Few Clouds 6000ft 1018 No Significant change LOWK 211120Z VRB03KT 9999 FEW060 27/14 Q1018 NOSIG
VFR 26°C / 15°C 120º variable 060º to 180º 5kt >10km - Few Clouds 6000ft 1019 No Significant change LOWK 211050Z 12005KT 060V180 9999 FEW060 26/15 Q1019 NOSIG
VFR 25°C / 13°C 130º variable 090º to 180º 6kt >10km - Few Clouds 6000ft 1019 No Significant change LOWK 211020Z 13006KT 090V180 9999 FEW060 25/13 Q1019 NOSIG
VFR 25°C / 15°C variable 3kt >10km - Few Clouds 6000ft 1020 No Significant change LOWK 210950Z VRB03KT 9999 FEW060 25/15 Q1020 NOSIG
VFR 24°C / 14°C 50º variable 330º to 100º 3kt >10km - Few Clouds 6000ft 1020 No Significant change LOWK 210920Z 05003KT 330V100 9999 FEW060 24/14 Q1020 NOSIG
VFR 23°C / 15°C variable 2kt >10km - Few Clouds 5000ft 1020 No Significant change LOWK 210850Z AUTO VRB02KT 9999 FEW050 23/15 Q1020 NOSIG
VFR 22°C / 14°C variable 3kt >10km - Few Clouds 5000ft 1020 No Significant change LOWK 210820Z AUTO VRB03KT 9999 FEW050 22/14 Q1020 NOSIG
VFR 22°C / 14°C 200º variable 150º to 260º 4kt >10km - Clouds and Visibility OK 1020 No Significant change LOWK 210750Z AUTO 20004KT 150V260 CAVOK 22/14 Q1020 NOSIG
VFR 21°C / 14°C variable 2kt >10km - Clouds and Visibility OK 1020 No Significant change LOWK 210720Z AUTO VRB02KT CAVOK 21/14 Q1020 NOSIG
VFR 20°C / 14°C 320º variable 290º to 360º 3kt >10km - Clouds and Visibility OK 1020 No Significant change LOWK 210650Z AUTO 32003KT 290V360 CAVOK 20/14 Q1020 NOSIG
VFR 20°C / 14°C 300º variable 270º to 330º 4kt >10km - Clouds and Visibility OK 1020 No Significant change LOWK 210620Z AUTO 30004KT 270V330 CAVOK 20/14 Q1020 NOSIG
VFR 19°C / 14°C variable 2kt >10km - Clouds and Visibility OK 1020 No Significant change LOWK 210550Z AUTO VRB02KT CAVOK 19/14 Q1020 NOSIG
VFR 18°C / 13°C 280º variable 250º to 310º 3kt >10km - Clouds and Visibility OK 1020 No Significant change LOWK 210520Z AUTO 28003KT 250V310 CAVOK 18/13 Q1020 NOSIG
VFR 18°C / 14°C 300º variable 270º to 340º 3kt >10km - Clouds and Visibility OK 1020 No Significant change LOWK 210450Z AUTO 30003KT 270V340 CAVOK 18/14 Q1020 NOSIG

VFR

22°C / 17°C

[Mehr]
Wind 100º variable 060º to 140º 3kt
Sichtweite >10km
Wetter -
Wolken Few Clouds 7000ft
Scattered Clouds 9000ft
Druck 1016
Änderung No Significant change
Roh LOWK 211620Z 10003KT 060V140 9999 FEW070 SCT090 22/17 Q1016 NOSIG

VFR

23°C / 16°C

[Mehr]
Wind 60º 5kt
Sichtweite >10km
Wetter -
Wolken Few Clouds 6000ft
Broken Clouds 10000ft
Druck 1017
Änderung No Significant change
Roh LOWK 211550Z 06005KT 9999 FEW060 BKN100 23/16 Q1017 NOSIG

VFR

23°C / 16°C

[Mehr]
Wind variable 2kt
Sichtweite >10km
Wetter -
Wolken Few Clouds 6000ft
Few Clouds 6000ft
Broken Clouds 10000ft
Druck 1017
Änderung No Significant change
Roh LOWK 211520Z VRB02KT 9999 FEW060 FEW060TCU BKN100 23/16 Q1017 NOSIG

VFR

22°C / 17°C

[Mehr]
Wind 170º variable 130º to 210º 4kt
Sichtweite >10km
Wetter -
Wolken Few Clouds 5000ft
Few Clouds 6000ft
Broken Clouds 9000ft
Druck 1017
Änderung No Significant change
Roh LOWK 211450Z 17004KT 130V210 9999 FEW050 FEW060CB BKN090 22/17 Q1017 NOSIG

VFR

22°C / 17°C

[Mehr]
Wind variable 3kt
Sichtweite >10km
Wetter -
Wolken Scattered Clouds 5000ft
Few Clouds 5000ft
Broken Clouds 9000ft
Druck 1018
Änderung No Significant change
Roh LOWK 211420Z VRB03KT 9999 SCT050 FEW050CB BKN090 22/17 Q1018 RETSRA NOSIG

VFR

21°C / 15°C

[Mehr]
Wind 300º variable 260º to 330º 19kt Gust 32kt
Sichtweite >10km
Wetter Thunderstorm Rain 3.00mm precipitation
Wolken Vertical Visibility of 0ft.
Scattered Clouds 6000ft
Broken Clouds 7500ft
Druck 1018
Änderung Becoming: NSW
Roh LOWK 211350Z 30019G32KT 260V330 9999 4000W TSRA FEW050CB SCT060 BKN075 21/15 Q1018 BECMG NSW

VFR

27°C / 11°C

[Mehr]
Wind 40º variable 010º to 070º 8kt
Sichtweite >10km
Wetter -
Wolken Scattered Clouds 6500ft
Few Clouds 6500ft
Druck 1017
Änderung Temporary: Showers Rain .
Roh LOWK 211320Z 04008KT 010V070 9999 SCT065 FEW065TCU 27/11 Q1017 TEMPO SHRA

VFR

27°C / 13°C

[Mehr]
Wind 360º variable 320º to 040º 4kt
Sichtweite >10km
Wetter -
Wolken Few Clouds 6500ft
Few Clouds 6500ft
Druck 1017
Änderung No Significant change
Roh LOWK 211250Z 36004KT 320V040 9999 FEW065 FEW065TCU 27/13 Q1017 NOSIG

VFR

27°C / 13°C

[Mehr]
Wind 70º variable 360º to 120º 5kt
Sichtweite >10km
Wetter -
Wolken Few Clouds 6500ft
Druck 1018
Änderung No Significant change
Roh LOWK 211220Z 07005KT 360V120 9999 FEW065 27/13 Q1018 NOSIG

VFR

27°C / 13°C

[Mehr]
Wind 30º variable 330º to 090º 6kt
Sichtweite >10km
Wetter -
Wolken Few Clouds 6000ft
Druck 1018
Änderung No Significant change
Roh LOWK 211150Z 03006KT 330V090 9999 FEW060 27/13 Q1018 NOSIG

VFR

27°C / 14°C

[Mehr]
Wind variable 3kt
Sichtweite >10km
Wetter -
Wolken Few Clouds 6000ft
Druck 1018
Änderung No Significant change
Roh LOWK 211120Z VRB03KT 9999 FEW060 27/14 Q1018 NOSIG

VFR

26°C / 15°C

[Mehr]
Wind 120º variable 060º to 180º 5kt
Sichtweite >10km
Wetter -
Wolken Few Clouds 6000ft
Druck 1019
Änderung No Significant change
Roh LOWK 211050Z 12005KT 060V180 9999 FEW060 26/15 Q1019 NOSIG

VFR

25°C / 13°C

[Mehr]
Wind 130º variable 090º to 180º 6kt
Sichtweite >10km
Wetter -
Wolken Few Clouds 6000ft
Druck 1019
Änderung No Significant change
Roh LOWK 211020Z 13006KT 090V180 9999 FEW060 25/13 Q1019 NOSIG

VFR

25°C / 15°C

[Mehr]
Wind variable 3kt
Sichtweite >10km
Wetter -
Wolken Few Clouds 6000ft
Druck 1020
Änderung No Significant change
Roh LOWK 210950Z VRB03KT 9999 FEW060 25/15 Q1020 NOSIG

VFR

24°C / 14°C

[Mehr]
Wind 50º variable 330º to 100º 3kt
Sichtweite >10km
Wetter -
Wolken Few Clouds 6000ft
Druck 1020
Änderung No Significant change
Roh LOWK 210920Z 05003KT 330V100 9999 FEW060 24/14 Q1020 NOSIG

VFR

23°C / 15°C

[Mehr]
Wind variable 2kt
Sichtweite >10km
Wetter -
Wolken Few Clouds 5000ft
Druck 1020
Änderung No Significant change
Roh LOWK 210850Z AUTO VRB02KT 9999 FEW050 23/15 Q1020 NOSIG

VFR

22°C / 14°C

[Mehr]
Wind variable 3kt
Sichtweite >10km
Wetter -
Wolken Few Clouds 5000ft
Druck 1020
Änderung No Significant change
Roh LOWK 210820Z AUTO VRB03KT 9999 FEW050 22/14 Q1020 NOSIG

VFR

22°C / 14°C

[Mehr]
Wind 200º variable 150º to 260º 4kt
Sichtweite >10km
Wetter -
Wolken Clouds and Visibility OK
Druck 1020
Änderung No Significant change
Roh LOWK 210750Z AUTO 20004KT 150V260 CAVOK 22/14 Q1020 NOSIG

VFR

21°C / 14°C

[Mehr]
Wind variable 2kt
Sichtweite >10km
Wetter -
Wolken Clouds and Visibility OK
Druck 1020
Änderung No Significant change
Roh LOWK 210720Z AUTO VRB02KT CAVOK 21/14 Q1020 NOSIG

VFR

20°C / 14°C

[Mehr]
Wind 320º variable 290º to 360º 3kt
Sichtweite >10km
Wetter -
Wolken Clouds and Visibility OK
Druck 1020
Änderung No Significant change
Roh LOWK 210650Z AUTO 32003KT 290V360 CAVOK 20/14 Q1020 NOSIG

VFR

20°C / 14°C

[Mehr]
Wind 300º variable 270º to 330º 4kt
Sichtweite >10km
Wetter -
Wolken Clouds and Visibility OK
Druck 1020
Änderung No Significant change
Roh LOWK 210620Z AUTO 30004KT 270V330 CAVOK 20/14 Q1020 NOSIG

VFR

19°C / 14°C

[Mehr]
Wind variable 2kt
Sichtweite >10km
Wetter -
Wolken Clouds and Visibility OK
Druck 1020
Änderung No Significant change
Roh LOWK 210550Z AUTO VRB02KT CAVOK 19/14 Q1020 NOSIG

VFR

18°C / 13°C

[Mehr]
Wind 280º variable 250º to 310º 3kt
Sichtweite >10km
Wetter -
Wolken Clouds and Visibility OK
Druck 1020
Änderung No Significant change
Roh LOWK 210520Z AUTO 28003KT 250V310 CAVOK 18/13 Q1020 NOSIG

VFR

18°C / 14°C

[Mehr]
Wind 300º variable 270º to 340º 3kt
Sichtweite >10km
Wetter -
Wolken Clouds and Visibility OK
Druck 1020
Änderung No Significant change
Roh LOWK 210450Z AUTO 30003KT 270V340 CAVOK 18/14 Q1020 NOSIG

TAF für Klagenfurt (LOWK)

From till


Maximum Temperature 28ºC on . Minimum Temperature 13ºC on .
From till Wind variable 4kt. Visibility 10km or more. Few Clouds 6000ft.
Temporarly from till Wind 270º 20kt. Gust 30kt. Thunderstorm Rain . Few Clouds 6000ft.

Roh: TAF AMD LOWK 211345Z 2113/2212 VRB04KT 9999 FEW060 TX28/2114Z TN13/2204Z TEMPO 2113/2118 27020G30KT TSRA FEW060CB

Radar- und Niederschlags-Nowcast für Klagenfurt

Nieselregen
Leicht
Moderat
Stark
Sehr schwer
Hagel

Die Ortsmarkierung zeigt auf Klagenfurt. Diese Animation zeigt das Niederschlagsradar der letzten Stunde, sowie eine 1h Vorhersage. Nieselregen und leichter Schneefall können für das Radar unsichtbar sein. Die Niederschlagsintensität ist farbcodiert von Hellblau bis Orange.

Aktuelle Satelliten- und Regenbilder für Klagenfurt, Österreich

Die Standortmarkierung ist platziert auf Klagenfurt. [Mehr]

Das Echtzeit-Satellitenbild kombiniert sichtbares Licht während des Tages mit Infrarotstrahlung während der Nacht. Nachts ist das Bild nicht dunkel, da Infrarotstrahlung Temperaturunterschiede erkennen kann. Leider sind niedrige Wolken und Nebel nur schwer von den Bodentemperaturen zu unterscheiden und können daher nachts fast unsichtbar sein. Meteosat-Satellitenbilder für Europa werden alle 5 Minuten in Echtzeit aktualisiert. Die Bilder GOES-16 / GOES-17 (Nord- und Südamerika) und Himawari (Asien) werden alle 10 Minuten aktualisiert.

Niederschläge werden von Radar und Satelliten berechnet. Nachts sind die Niederschlagsberechnungen durch die Satelliten weniger genau als tagsüber. Orangene Kreuze markieren Stellen, an denen Blitze aufgenommen wurden (über Europa).

Copyright 2022 EUMETSAT / meteoblue. Blitzdaten zur Verfügung gestellt von nowcast.

Zum Anfang